Time;durP1;ratioP1;P1;durP2;ratioP2;P2;SDS_P1;SDS_P2;PMS_P1;PMS_P2;Temp;Humidity;BMP_temperature;BMP_pressure;BME280_temperature;BME280_humidity;BME280_pressure;Samples;Min_cycle;Max_cycle;Signal;HPM_P1;HPM_P2
2023/01/26 00:00:25;;;;;;;26.27;11.90;;;;;;;;;;5035959;28;20029;-81
2023/01/26 00:02:50;;;;;;;28.52;12.38;;;;;;;;;;5035158;28;20018;-81
2023/01/26 00:05:16;;;;;;;25.45;11.98;;;;;;;;;;5016742;28;20066;-81
2023/01/26 00:07:44;;;;;;;24.63;11.32;;;;;;;;;;5015980;28;20029;-80
2023/01/26 00:10:10;;;;;;;27.35;12.48;;;;;;;;;;5015767;28;20387;-80
2023/01/26 00:12:35;;;;;;;28.23;12.13;;;;;;;;;;5016219;28;20029;-80
2023/01/26 00:15:00;;;;;;;23.08;11.65;;;;;;;;;;4999496;28;20033;-81
2023/01/26 00:17:25;;;;;;;22.65;11.18;;;;;;;;;;5016577;28;20025;-80
2023/01/26 00:19:56;;;;;;;23.13;11.25;;;;;;;;;;5016767;28;20029;-81
2023/01/26 00:22:22;;;;;;;24.60;11.60;;;;;;;;;;5016108;28;20097;-78
2023/01/26 00:24:47;;;;;;;25.88;11.85;;;;;;;;;;5016318;28;20050;-82
2023/01/26 00:27:12;;;;;;;26.73;11.80;;;;;;;;;;5016042;28;20029;-81
2023/01/26 00:29:38;;;;;;;25.92;11.07;;;;;;;;;;5015719;28;20442;-80
2023/01/26 00:32:03;;;;;;;24.80;11.77;;;;;;;;;;5016054;28;20479;-79
2023/01/26 00:34:28;;;;;;;23.50;11.82;;;;;;;;;;5016619;28;20029;-80
2023/01/26 00:36:53;;;;;;;28.27;12.10;;;;;;;;;;5017389;28;20022;-80
2023/01/26 00:39:19;;;;;;;29.70;12.45;;;;;;;;;;5016379;28;20481;-81
2023/01/26 00:44:28;;;;;;;24.13;11.57;;;;;;;;;;5017254;28;20080;-81
2023/01/26 00:46:53;;;;;;;26.85;12.02;;;;;;;;;;5017025;28;20026;-81
2023/01/26 00:49:18;;;;;;;25.55;12.38;;;;;;;;;;5017299;28;20052;-81
2023/01/26 00:51:43;;;;;;;27.52;12.63;;;;;;;;;;5016199;28;20042;-80
2023/01/26 00:54:08;;;;;;;28.02;11.80;;;;;;;;;;5016259;28;20076;-80
2023/01/26 00:56:34;;;;;;;26.85;12.80;;;;;;;;;;5016987;28;20037;-81
2023/01/26 01:02:21;;;;;;;26.63;11.50;;;;;;;;;;5016082;28;20073;-81
2023/01/26 01:04:49;;;;;;;27.30;12.13;;;;;;;;;;5032917;28;20480;-82
2023/01/26 01:07:14;;;;;;;25.02;11.80;;;;;;;;;;5017780;28;20026;-81
2023/01/26 01:09:40;;;;;;;24.85;12.13;;;;;;;;;;5019630;28;20028;-80
2023/01/26 01:12:05;;;;;;;24.63;11.52;;;;;;;;;;5020549;28;20025;-80
2023/01/26 01:14:31;;;;;;;23.15;10.82;;;;;;;;;;5021117;28;20044;-81
2023/01/26 01:16:56;;;;;;;23.15;11.35;;;;;;;;;;5020231;28;20029;-80
2023/01/26 01:19:21;;;;;;;24.52;11.50;;;;;;;;;;5019900;28;20388;-81
2023/01/26 01:21:46;;;;;;;23.80;11.77;;;;;;;;;;5019733;28;20026;-81
2023/01/26 01:24:12;;;;;;;26.35;11.73;;;;;;;;;;5019857;28;20396;-82
2023/01/26 01:26:38;;;;;;;28.42;12.07;;;;;;;;;;5020298;28;20053;-81
2023/01/26 01:29:03;;;;;;;25.05;11.00;;;;;;;;;;5019083;28;20052;-81
2023/01/26 01:31:29;;;;;;;27.08;12.07;;;;;;;;;;5019731;28;20025;-81
2023/01/26 01:33:55;;;;;;;26.23;12.50;;;;;;;;;;5018802;28;20029;-81
2023/01/26 01:36:20;;;;;;;24.63;11.30;;;;;;;;;;5019870;28;20036;-81
2023/01/26 01:38:46;;;;;;;28.17;12.15;;;;;;;;;;5020545;28;20034;-81
2023/01/26 01:41:17;;;;;;;33.45;12.98;;;;;;;;;;5018468;28;20026;-82
2023/01/26 01:43:42;;;;;;;24.38;12.05;;;;;;;;;;5018143;28;20030;-82
2023/01/26 01:46:25;;;;;;;30.35;13.18;;;;;;;;;;5019831;28;20033;-81
2023/01/26 01:49:03;;;;;;;28.67;13.00;;;;;;;;;;5018130;28;20037;-79
2023/01/26 01:51:42;;;;;;;25.15;12.68;;;;;;;;;;5016434;28;20022;-80
2023/01/26 01:54:11;;;;;;;27.20;12.95;;;;;;;;;;5021405;28;20441;-82
2023/01/26 01:56:39;;;;;;;28.02;12.70;;;;;;;;;;5019162;28;20026;-81
2023/01/26 01:59:07;;;;;;;26.90;12.57;;;;;;;;;;5020234;28;20537;-81
2023/01/26 02:01:33;;;;;;;26.17;12.88;;;;;;;;;;5020686;28;20033;-82
2023/01/26 02:04:02;;;;;;;27.20;12.57;;;;;;;;;;5019488;28;20025;-82
2023/01/26 02:06:36;;;;;;;24.30;12.18;;;;;;;;;;5018309;28;20026;-81
2023/01/26 02:09:03;;;;;;;30.63;12.73;;;;;;;;;;5018751;28;20028;-79
2023/01/26 02:11:39;;;;;;;26.55;11.65;;;;;;;;;;5019732;28;20040;-82
2023/01/26 02:14:08;;;;;;;28.20;12.23;;;;;;;;;;5018140;28;20120;-82
2023/01/26 02:16:34;;;;;;;28.38;12.02;;;;;;;;;;5018342;28;20539;-80
2023/01/26 02:18:59;;;;;;;31.83;13.40;;;;;;;;;;5019821;28;20026;-81
2023/01/26 02:21:25;;;;;;;26.63;12.57;;;;;;;;;;5017220;28;20026;-81
2023/01/26 02:24:10;;;;;;;26.65;12.50;;;;;;;;;;5019876;28;20029;-81
2023/01/26 02:26:36;;;;;;;31.73;12.48;;;;;;;;;;5019726;28;20056;-81
2023/01/26 02:29:06;;;;;;;33.25;12.48;;;;;;;;;;5020174;28;20030;-81
2023/01/26 02:31:31;;;;;;;29.38;12.75;;;;;;;;;;5017861;28;20025;-81
2023/01/26 02:33:56;;;;;;;30.75;13.73;;;;;;;;;;5017239;28;20039;-81
2023/01/26 02:36:24;;;;;;;34.92;13.98;;;;;;;;;;5019081;28;20113;-79
2023/01/26 02:39:28;;;;;;;28.67;13.10;;;;;;;;;;5016680;28;20117;-80
2023/01/26 02:44:39;;;;;;;32.30;13.02;;;;;;;;;;5018962;28;20082;-80
2023/01/26 02:47:15;;;;;;;32.33;12.98;;;;;;;;;;5018579;28;20045;-81
2023/01/26 02:49:47;;;;;;;32.20;13.35;;;;;;;;;;5017472;28;20022;-79
2023/01/26 02:52:13;;;;;;;34.35;13.40;;;;;;;;;;5018964;28;20479;-82
2023/01/26 02:57:23;;;;;;;28.52;13.43;;;;;;;;;;5020047;28;20129;-82
2023/01/26 02:59:48;;;;;;;34.97;13.68;;;;;;;;;;5018168;28;20057;-80
2023/01/26 03:02:13;;;;;;;35.35;13.60;;;;;;;;;;5018163;28;20044;-80
2023/01/26 03:04:38;;;;;;;35.40;13.10;;;;;;;;;;5017201;28;20025;-82
2023/01/26 03:07:04;;;;;;;32.42;14.15;;;;;;;;;;5018516;28;20057;-82
2023/01/26 03:09:29;;;;;;;32.53;13.32;;;;;;;;;;5018108;28;20028;-79
2023/01/26 03:11:54;;;;;;;33.75;13.32;;;;;;;;;;5016892;28;20056;-80
2023/01/26 03:14:19;;;;;;;29.05;12.82;;;;;;;;;;5016789;28;20049;-80
2023/01/26 03:16:45;;;;;;;31.55;13.30;;;;;;;;;;5018300;28;20022;-81
2023/01/26 03:27:28;;;;;;;29.13;13.43;;;;;;;;;;5016762;28;20087;-82
2023/01/26 03:29:56;;;;;;;38.88;13.85;;;;;;;;;;5015538;28;20098;-82
2023/01/26 03:32:23;;;;;;;34.53;13.45;;;;;;;;;;5016983;28;20045;-82
2023/01/26 03:34:48;;;;;;;33.45;13.32;;;;;;;;;;5017798;28;20029;-82
2023/01/26 03:37:13;;;;;;;36.45;14.93;;;;;;;;;;5016938;28;20067;-81
2023/01/26 03:56:21;;;;;;;31.48;13.23;;;;;;;;;;5031508;28;20028;-81
2023/01/26 03:58:56;;;;;;;32.83;12.70;;;;;;;;;;5037808;28;20022;-80
2023/01/26 04:01:31;;;;;;;33.13;13.18;;;;;;;;;;5038450;28;20025;-80
2023/01/26 04:09:29;;;;;;;36.83;14.63;;;;;;;;;;5026648;28;20036;-80
2023/01/26 04:11:54;;;;;;;37.17;14.05;;;;;;;;;;5021521;28;20029;-80
2023/01/26 04:22:39;;;;;;;34.58;13.55;;;;;;;;;;5020486;28;20083;-80
2023/01/26 04:25:08;;;;;;;32.95;12.27;;;;;;;;;;5019274;28;20048;-80
2023/01/26 04:27:34;;;;;;;35.50;12.68;;;;;;;;;;5017859;28;20026;-80
2023/01/26 04:30:00;;;;;;;35.03;13.55;;;;;;;;;;5016683;28;20034;-79
2023/01/26 04:32:26;;;;;;;37.15;13.48;;;;;;;;;;5014072;28;20057;-80
2023/01/26 04:34:51;;;;;;;30.00;11.82;;;;;;;;;;5014161;28;20053;-80
2023/01/26 04:37:16;;;;;;;35.55;12.50;;;;;;;;;;5014397;28;20077;-81
2023/01/26 04:39:42;;;;;;;30.00;12.07;;;;;;;;;;5014528;28;20029;-80
2023/01/26 04:42:07;;;;;;;35.95;14.15;;;;;;;;;;5014596;28;20033;-79
2023/01/26 04:44:32;;;;;;;34.95;13.30;;;;;;;;;;5015538;28;20026;-79
2023/01/26 04:46:57;;;;;;;33.47;12.18;;;;;;;;;;5018850;28;20029;-79
2023/01/26 04:49:23;;;;;;;36.03;13.75;;;;;;;;;;5017984;28;20056;-80
2023/01/26 04:51:48;;;;;;;34.78;13.48;;;;;;;;;;5018995;28;20400;-80
2023/01/26 04:54:13;;;;;;;39.70;14.13;;;;;;;;;;5019413;28;20026;-80
2023/01/26 04:56:38;;;;;;;33.03;12.82;;;;;;;;;;5017440;28;20399;-78
2023/01/26 04:59:06;;;;;;;37.78;13.25;;;;;;;;;;5017761;28;20395;-79
2023/01/26 05:01:32;;;;;;;34.60;13.82;;;;;;;;;;5019269;28;20435;-80
2023/01/26 05:04:01;;;;;;;34.58;12.25;;;;;;;;;;5017688;28;20052;-80
2023/01/26 05:06:27;;;;;;;32.67;11.40;;;;;;;;;;5019319;28;20511;-80
2023/01/26 05:08:52;;;;;;;31.95;11.90;;;;;;;;;;5018838;28;20034;-80
2023/01/26 05:11:17;;;;;;;32.00;12.85;;;;;;;;;;5019308;28;20392;-81
2023/01/26 05:13:42;;;;;;;29.13;11.15;;;;;;;;;;5019343;28;20354;-79
2023/01/26 05:16:08;;;;;;;35.08;12.85;;;;;;;;;;5018174;28;20018;-81
2023/01/26 05:18:33;;;;;;;31.90;11.40;;;;;;;;;;5017905;28;20022;-79
2023/01/26 05:20:58;;;;;;;31.00;11.95;;;;;;;;;;5017722;28;20053;-81
2023/01/26 05:23:24;;;;;;;30.40;10.90;;;;;;;;;;5019805;28;20484;-79
2023/01/26 05:25:52;;;;;;;29.90;11.38;;;;;;;;;;5020078;28;20556;-80
2023/01/26 05:28:17;;;;;;;30.15;11.90;;;;;;;;;;5018076;28;20029;-79
2023/01/26 05:30:42;;;;;;;30.25;11.93;;;;;;;;;;5020028;28;20480;-80
2023/01/26 05:33:09;;;;;;;26.17;10.70;;;;;;;;;;5019597;28;20025;-80
2023/01/26 05:35:37;;;;;;;26.58;10.52;;;;;;;;;;5019859;28;20034;-81
2023/01/26 05:38:02;;;;;;;25.83;9.98;;;;;;;;;;5019951;28;20404;-80
2023/01/26 05:40:28;;;;;;;28.92;10.15;;;;;;;;;;5019669;28;20026;-82
2023/01/26 05:42:53;;;;;;;25.85;9.70;;;;;;;;;;5019548;28;20026;-81
2023/01/26 05:45:19;;;;;;;26.33;9.88;;;;;;;;;;5018245;28;20037;-81
2023/01/26 05:47:45;;;;;;;23.92;8.65;;;;;;;;;;5018406;28;20026;-79
2023/01/26 05:50:11;;;;;;;22.50;9.18;;;;;;;;;;5019862;28;20060;-82
2023/01/26 05:52:36;;;;;;;21.42;8.65;;;;;;;;;;5019774;28;20038;-81
2023/01/26 05:55:02;;;;;;;25.33;7.90;;;;;;;;;;5021360;28;20026;-81
2023/01/26 05:57:27;;;;;;;19.33;7.55;;;;;;;;;;5022089;28;20026;-80
2023/01/26 05:59:52;;;;;;;24.05;8.30;;;;;;;;;;5021265;28;20439;-80
2023/01/26 06:02:18;;;;;;;22.30;8.32;;;;;;;;;;5020711;28;20049;-81
2023/01/26 06:04:44;;;;;;;26.25;9.20;;;;;;;;;;5020439;28;20037;-81
2023/01/26 06:07:09;;;;;;;19.40;6.88;;;;;;;;;;5020716;28;20028;-81
2023/01/26 06:09:34;;;;;;;25.65;8.18;;;;;;;;;;5021809;28;20480;-81
2023/01/26 06:12:03;;;;;;;26.73;9.55;;;;;;;;;;5022773;28;20491;-81
2023/01/26 06:14:28;;;;;;;20.60;8.35;;;;;;;;;;5022261;28;20117;-81
2023/01/26 06:16:55;;;;;;;20.88;8.90;;;;;;;;;;5021692;28;20022;-80
2023/01/26 06:19:20;;;;;;;21.30;8.23;;;;;;;;;;5019695;28;20029;-80
2023/01/26 06:21:45;;;;;;;22.20;8.20;;;;;;;;;;5019167;28;20036;-81
2023/01/26 06:24:11;;;;;;;19.08;8.15;;;;;;;;;;5020604;28;20076;-79
2023/01/26 06:26:39;;;;;;;26.42;9.15;;;;;;;;;;5020394;28;20049;-81
2023/01/26 06:29:05;;;;;;;30.48;10.93;;;;;;;;;;5019395;28;20484;-79
2023/01/26 06:31:30;;;;;;;29.67;10.80;;;;;;;;;;5020346;28;20030;-80
2023/01/26 06:33:56;;;;;;;27.17;10.63;;;;;;;;;;5018271;28;20026;-80
2023/01/26 06:36:21;;;;;;;26.05;9.60;;;;;;;;;;5020387;28;20030;-81
2023/01/26 06:38:48;;;;;;;26.73;10.73;;;;;;;;;;5020415;28;20475;-81
2023/01/26 06:41:15;;;;;;;35.50;11.00;;;;;;;;;;5020944;28;20029;-81
2023/01/26 06:43:44;;;;;;;28.15;10.95;;;;;;;;;;5020915;28;20076;-81
2023/01/26 06:46:09;;;;;;;33.60;11.98;;;;;;;;;;5019859;28;20033;-80
2023/01/26 06:48:35;;;;;;;29.38;10.50;;;;;;;;;;5019297;28;20032;-80
2023/01/26 06:51:42;;;;;;;25.15;10.05;;;;;;;;;;5020371;28;20061;-81
2023/01/26 06:54:10;;;;;;;30.35;11.43;;;;;;;;;;5020131;28;20042;-81
2023/01/26 06:56:35;;;;;;;24.95;9.63;;;;;;;;;;5020295;28;20448;-81
2023/01/26 06:59:00;;;;;;;29.02;10.30;;;;;;;;;;5019975;28;20065;-81
2023/01/26 07:01:26;;;;;;;29.10;11.57;;;;;;;;;;5020367;28;20069;-81
2023/01/26 07:03:52;;;;;;;30.60;10.65;;;;;;;;;;5018696;28;20030;-81
2023/01/26 07:06:18;;;;;;;30.33;11.18;;;;;;;;;;5018436;28;20018;-80
2023/01/26 07:08:43;;;;;;;29.75;11.60;;;;;;;;;;5020813;28;20106;-81
2023/01/26 07:11:10;;;;;;;32.40;12.32;;;;;;;;;;5020341;28;20484;-80
2023/01/26 07:13:35;;;;;;;35.10;12.02;;;;;;;;;;5019162;28;20044;-81
2023/01/26 07:16:05;;;;;;;32.70;12.63;;;;;;;;;;5021110;28;20536;-81
2023/01/26 07:18:31;;;;;;;34.75;14.15;;;;;;;;;;5019872;28;20018;-80
2023/01/26 07:21:00;;;;;;;31.02;12.18;;;;;;;;;;5019239;28;20052;-80
2023/01/26 07:23:26;;;;;;;31.40;11.77;;;;;;;;;;5019378;28;20029;-81
2023/01/26 07:25:51;;;;;;;27.23;11.50;;;;;;;;;;5019418;28;20041;-81
2023/01/26 07:28:16;;;;;;;33.45;12.52;;;;;;;;;;5018688;28;20026;-81
2023/01/26 07:30:41;;;;;;;28.90;11.27;;;;;;;;;;5021000;28;20033;-80
2023/01/26 07:33:06;;;;;;;30.63;11.35;;;;;;;;;;5021927;28;20033;-80
2023/01/26 07:35:32;;;;;;;33.08;12.50;;;;;;;;;;5022180;28;20032;-81
2023/01/26 07:37:57;;;;;;;31.08;13.23;;;;;;;;;;5020010;28;20054;-80
2023/01/26 07:40:23;;;;;;;35.72;13.45;;;;;;;;;;5019383;28;20029;-81
2023/01/26 07:42:48;;;;;;;37.20;12.40;;;;;;;;;;5019689;28;20028;-80
2023/01/26 07:45:16;;;;;;;36.95;10.68;;;;;;;;;;5019339;28;20088;-82
2023/01/26 07:47:42;;;;;;;32.05;11.75;;;;;;;;;;5018188;28;20113;-79
2023/01/26 07:50:09;;;;;;;30.42;12.68;;;;;;;;;;5018624;28;20022;-80
2023/01/26 07:52:34;;;;;;;30.02;12.45;;;;;;;;;;5017530;28;20026;-82
2023/01/26 07:55:00;;;;;;;32.17;13.30;;;;;;;;;;5016286;28;20025;-79
2023/01/26 07:57:26;;;;;;;38.35;13.10;;;;;;;;;;5017850;28;20068;-80
2023/01/26 07:59:51;;;;;;;32.30;11.63;;;;;;;;;;5017783;28;20029;-80
2023/01/26 08:02:16;;;;;;;30.58;11.05;;;;;;;;;;5017519;28;20105;-80
2023/01/26 08:04:41;;;;;;;29.90;12.35;;;;;;;;;;5016671;28;20026;-80
2023/01/26 08:07:07;;;;;;;29.73;12.45;;;;;;;;;;5017657;28;20045;-81
2023/01/26 08:09:32;;;;;;;29.02;12.05;;;;;;;;;;5016042;28;20033;-80
2023/01/26 08:11:58;;;;;;;29.48;11.52;;;;;;;;;;5017555;28;20021;-81
2023/01/26 08:14:23;;;;;;;30.92;12.85;;;;;;;;;;5016113;28;20018;-80
2023/01/26 08:16:48;;;;;;;34.60;13.05;;;;;;;;;;5017485;28;20106;-81
2023/01/26 08:19:14;;;;;;;36.38;13.68;;;;;;;;;;5018053;28;20090;-79
2023/01/26 08:21:39;;;;;;;32.65;13.60;;;;;;;;;;5021957;28;20057;-81
2023/01/26 08:24:05;;;;;;;30.25;13.63;;;;;;;;;;5020208;28;20044;-80
2023/01/26 08:26:31;;;;;;;33.47;13.77;;;;;;;;;;5021944;28;20018;-80
2023/01/26 08:28:56;;;;;;;29.23;12.68;;;;;;;;;;5019665;28;20033;-80
2023/01/26 08:31:23;;;;;;;28.70;11.25;;;;;;;;;;5021204;28;20419;-80
2023/01/26 08:33:50;;;;;;;31.02;12.73;;;;;;;;;;5020012;28;20053;-79
2023/01/26 08:36:17;;;;;;;33.28;12.85;;;;;;;;;;5019319;28;20115;-80
2023/01/26 08:38:43;;;;;;;36.10;13.48;;;;;;;;;;5020158;28;20021;-79
2023/01/26 08:41:09;;;;;;;32.63;13.27;;;;;;;;;;5021777;28;20037;-80
2023/01/26 08:43:34;;;;;;;31.10;13.52;;;;;;;;;;5021195;28;20037;-81
2023/01/26 08:46:00;;;;;;;34.53;14.85;;;;;;;;;;5023561;28;20053;-80
2023/01/26 08:48:26;;;;;;;31.55;13.60;;;;;;;;;;5024170;28;20036;-80
2023/01/26 08:50:56;;;;;;;30.90;12.75;;;;;;;;;;5023862;28;20026;-81
2023/01/26 08:53:22;;;;;;;29.70;12.43;;;;;;;;;;5022814;28;20033;-80
2023/01/26 08:55:47;;;;;;;37.20;13.60;;;;;;;;;;5022292;28;20088;-80
2023/01/26 08:58:12;;;;;;;34.70;13.15;;;;;;;;;;5023634;28;20026;-81
2023/01/26 09:00:37;;;;;;;38.22;14.30;;;;;;;;;;5023300;28;20029;-81
2023/01/26 09:03:26;;;;;;;32.90;13.63;;;;;;;;;;5022903;28;20033;-81
2023/01/26 09:05:51;;;;;;;40.08;14.18;;;;;;;;;;5023620;28;20030;-81
2023/01/26 09:08:16;;;;;;;32.85;13.98;;;;;;;;;;5022637;28;20121;-79
2023/01/26 09:10:43;;;;;;;29.83;12.45;;;;;;;;;;5023926;28;20057;-80
2023/01/26 09:13:12;;;;;;;33.97;13.90;;;;;;;;;;5023554;28;20057;-81
2023/01/26 09:15:40;;;;;;;33.90;14.82;;;;;;;;;;5022788;28;20101;-82
2023/01/26 09:18:05;;;;;;;32.10;13.77;;;;;;;;;;5021253;28;20025;-81
2023/01/26 09:20:31;;;;;;;33.42;13.38;;;;;;;;;;5022187;28;20026;-81
2023/01/26 09:22:56;;;;;;;27.98;12.43;;;;;;;;;;5022177;28;20052;-81
2023/01/26 09:25:21;;;;;;;24.52;10.57;;;;;;;;;;5022256;28;20026;-81
2023/01/26 09:27:47;;;;;;;32.33;12.38;;;;;;;;;;5021999;28;20033;-80
2023/01/26 09:30:12;;;;;;;30.77;12.63;;;;;;;;;;5021509;28;20030;-81
2023/01/26 09:32:38;;;;;;;31.67;12.75;;;;;;;;;;5021856;28;20029;-82
2023/01/26 09:35:03;;;;;;;29.30;12.63;;;;;;;;;;5021186;28;20444;-81
2023/01/26 09:37:28;;;;;;;32.20;11.73;;;;;;;;;;5021282;28;20077;-80
2023/01/26 09:39:54;;;;;;;24.77;9.77;;;;;;;;;;5020504;28;20022;-81
2023/01/26 09:42:42;;;;;;;27.33;12.25;;;;;;;;;;5019634;28;20122;-82
2023/01/26 09:45:10;;;;;;;31.77;13.38;;;;;;;;;;5019409;28;20404;-81
2023/01/26 09:48:02;;;;;;;33.30;13.70;;;;;;;;;;5018250;28;20080;-81
2023/01/26 09:50:51;;;;;;;35.40;13.10;;;;;;;;;;5019093;28;20115;-81
2023/01/26 09:53:25;;;;;;;26.00;10.63;;;;;;;;;;5018878;28;20045;-81
2023/01/26 09:55:51;;;;;;;25.52;11.68;;;;;;;;;;5020489;28;20488;-80
2023/01/26 09:58:39;;;;;;;32.05;11.93;;;;;;;;;;5020256;28;20026;-79
2023/01/26 10:01:12;;;;;;;27.60;9.75;;;;;;;;;;5019498;28;20095;-80
2023/01/26 10:03:45;;;;;;;30.23;12.02;;;;;;;;;;5018373;28;20034;-79
2023/01/26 10:06:21;;;;;;;31.03;12.33;;;;;;;;;;5018200;28;20033;-80
2023/01/26 10:08:48;;;;;;;36.35;11.93;;;;;;;;;;5020786;28;20064;-80
2023/01/26 10:11:23;;;;;;;26.35;11.18;;;;;;;;;;5020579;28;20044;-80
2023/01/26 10:13:56;;;;;;;28.88;11.82;;;;;;;;;;5019832;28;20105;-81
2023/01/26 10:16:23;;;;;;;29.52;12.05;;;;;;;;;;5018485;28;20050;-80
2023/01/26 10:19:03;;;;;;;33.75;12.05;;;;;;;;;;5019712;28;20476;-81
2023/01/26 10:21:32;;;;;;;27.92;10.98;;;;;;;;;;5018700;28;20052;-82
2023/01/26 10:24:00;;;;;;;31.05;12.55;;;;;;;;;;5020152;28;20048;-81
2023/01/26 10:26:29;;;;;;;29.70;11.88;;;;;;;;;;5018124;28;20029;-81
2023/01/26 10:28:55;;;;;;;23.17;9.02;;;;;;;;;;5019300;28;20028;-80
2023/01/26 10:31:23;;;;;;;25.95;10.65;;;;;;;;;;5019524;28;20053;-81
2023/01/26 10:33:54;;;;;;;32.20;11.00;;;;;;;;;;5019979;28;20026;-81
2023/01/26 10:36:19;;;;;;;30.80;10.65;;;;;;;;;;5017414;28;20049;-80
2023/01/26 10:38:46;;;;;;;30.50;10.60;;;;;;;;;;5018710;28;20052;-81
2023/01/26 10:41:17;;;;;;;33.03;13.27;;;;;;;;;;5018457;28;20022;-82
2023/01/26 10:43:57;;;;;;;29.85;10.82;;;;;;;;;;5019165;28;20182;-82
2023/01/26 10:46:34;;;;;;;27.17;10.52;;;;;;;;;;5018173;28;20061;-81
2023/01/26 10:49:18;;;;;;;24.92;9.65;;;;;;;;;;5018536;28;20390;-80
2023/01/26 10:52:03;;;;;;;31.38;11.85;;;;;;;;;;5018348;28;20036;-80
2023/01/26 10:54:35;;;;;;;27.88;11.30;;;;;;;;;;5019334;28;20044;-81
2023/01/26 10:57:06;;;;;;;27.65;10.98;;;;;;;;;;5018931;28;20026;-81
2023/01/26 10:59:35;;;;;;;29.13;12.15;;;;;;;;;;5019123;28;20028;-81
2023/01/26 11:02:18;;;;;;;30.75;11.82;;;;;;;;;;5018555;28;20101;-80
2023/01/26 11:05:03;;;;;;;35.47;12.48;;;;;;;;;;5017268;28;20030;-80
2023/01/26 11:07:39;;;;;;;20.02;9.23;;;;;;;;;;5018505;28;20024;-79
2023/01/26 11:10:32;;;;;;;30.00;11.10;;;;;;;;;;5017761;28;20046;-81
2023/01/26 11:13:18;;;;;;;28.45;10.75;;;;;;;;;;5018508;28;20115;-82
2023/01/26 11:15:46;;;;;;;25.80;10.82;;;;;;;;;;5017338;28;20053;-81
2023/01/26 11:18:39;;;;;;;32.47;11.05;;;;;;;;;;5017075;28;20018;-81
2023/01/26 11:21:07;;;;;;;24.50;10.95;;;;;;;;;;5018022;28;20026;-81
2023/01/26 11:23:47;;;;;;;28.70;11.07;;;;;;;;;;5017293;28;20499;-81
2023/01/26 11:26:50;;;;;;;19.60;8.65;;;;;;;;;;5016101;28;20060;-81
2023/01/26 11:29:34;;;;;;;27.15;10.98;;;;;;;;;;5018691;28;20076;-80
2023/01/26 11:32:20;;;;;;;30.30;12.07;;;;;;;;;;5018527;28;20057;-80
2023/01/26 11:35:02;;;;;;;27.00;10.95;;;;;;;;;;5018258;28;20100;-81
2023/01/26 11:37:39;;;;;;;34.85;13.10;;;;;;;;;;5016748;28;20028;-79
2023/01/26 11:40:43;;;;;;;26.40;11.63;;;;;;;;;;5018116;28;20021;-80
2023/01/26 11:43:15;;;;;;;27.23;11.32;;;;;;;;;;5017748;28;20032;-81
2023/01/26 11:46:10;;;;;;;28.65;12.43;;;;;;;;;;5017602;28;20417;-80
2023/01/26 11:48:48;;;;;;;27.30;11.75;;;;;;;;;;5018469;28;20030;-82
2023/01/26 11:51:26;;;;;;;21.13;9.48;;;;;;;;;;5017217;28;20026;-80
2023/01/26 11:54:11;;;;;;;24.33;10.70;;;;;;;;;;5017389;28;20053;-82
2023/01/26 11:56:49;;;;;;;25.17;11.35;;;;;;;;;;5017868;28;20026;-82
2023/01/26 11:59:20;;;;;;;26.90;10.23;;;;;;;;;;5016065;28;20030;-81
2023/01/26 12:01:54;;;;;;;17.92;7.70;;;;;;;;;;5017710;28;20447;-81
2023/01/26 12:04:21;;;;;;;26.80;10.82;;;;;;;;;;5017904;28;20057;-79
2023/01/26 12:06:54;;;;;;;22.95;9.65;;;;;;;;;;5018229;28;20029;-81
2023/01/26 12:09:38;;;;;;;24.17;9.07;;;;;;;;;;5020864;28;20034;-80
2023/01/26 12:12:09;;;;;;;;;;;;;;;;;;5016418;28;20495;-81
2023/01/26 12:14:54;;;;;;;20.55;9.70;;;;;;;;;;5015947;28;19913;-81
2023/01/26 12:17:49;;;;;;;23.15;9.77;;;;;;;;;;5015714;28;20125;-81
2023/01/26 12:20:38;;;;;;;29.35;10.55;;;;;;;;;;5017634;28;20496;-80
2023/01/26 12:23:08;;;;;;;24.65;10.63;;;;;;;;;;5016378;28;20029;-81
2023/01/26 12:25:54;;;;;;;22.95;9.52;;;;;;;;;;5016581;28;20057;-82
2023/01/26 12:28:47;;;;;;;27.98;11.32;;;;;;;;;;5015536;28;20100;-81
2023/01/26 12:31:25;;;;;;;26.20;11.77;;;;;;;;;;5016545;28;20109;-81
2023/01/26 12:33:53;;;;;;;27.90;11.18;;;;;;;;;;5016381;28;20052;-80
2023/01/26 12:36:38;;;;;;;28.88;10.32;;;;;;;;;;5017788;28;20400;-81
2023/01/26 12:39:10;;;;;;;21.75;9.38;;;;;;;;;;5019267;28;20080;-81
2023/01/26 12:41:54;;;;;;;21.98;9.48;;;;;;;;;;5019177;28;20022;-80
2023/01/26 12:44:35;;;;;;;23.95;9.65;;;;;;;;;;5019701;28;20037;-80
2023/01/26 12:47:16;;;;;;;17.70;7.70;;;;;;;;;;5020265;28;20037;-80
2023/01/26 12:49:58;;;;;;;21.20;9.68;;;;;;;;;;5028622;28;20010;-80
2023/01/26 12:52:27;;;;;;;19.58;8.23;;;;;;;;;;5035787;28;20038;-81
2023/01/26 12:54:58;;;;;;;22.30;8.73;;;;;;;;;;5030270;28;20041;-81
2023/01/26 12:57:31;;;;;;;21.30;9.35;;;;;;;;;;5022140;28;20480;-82
2023/01/26 13:00:08;;;;;;;21.60;9.33;;;;;;;;;;5026589;28;20041;-82
2023/01/26 13:02:35;;;;;;;19.85;9.05;;;;;;;;;;5035364;28;20129;-80
2023/01/26 13:05:01;;;;;;;19.08;8.77;;;;;;;;;;5036393;28;20034;-80
2023/01/26 13:07:36;;;;;;;21.27;8.88;;;;;;;;;;5041774;28;20022;-80
2023/01/26 13:10:13;;;;;;;22.15;9.00;;;;;;;;;;5041486;28;20052;-79
2023/01/26 13:13:19;;;;;;;20.95;8.35;;;;;;;;;;5039697;28;20085;-80
2023/01/26 13:15:44;;;;;;;17.13;8.10;;;;;;;;;;5040815;28;20021;-80
2023/01/26 13:18:17;;;;;;;18.92;8.18;;;;;;;;;;5041669;28;20014;-78
2023/01/26 13:20:47;;;;;;;16.08;7.80;;;;;;;;;;5041521;28;20045;-80
2023/01/26 13:23:27;;;;;;;18.15;8.32;;;;;;;;;;5041549;28;20022;-79
2023/01/26 13:26:31;;;;;;;21.48;8.48;;;;;;;;;;5041381;28;20010;-81
2023/01/26 13:29:24;;;;;;;20.48;8.77;;;;;;;;;;5018831;28;20076;-81
2023/01/26 13:31:51;;;;;;;18.48;8.38;;;;;;;;;;5041465;28;20018;-81
2023/01/26 13:34:20;;;;;;;16.40;7.25;;;;;;;;;;5040644;28;20042;-80
2023/01/26 13:36:49;;;;;;;17.30;8.30;;;;;;;;;;5040637;28;20036;-80
2023/01/26 13:39:30;;;;;;;16.25;7.72;;;;;;;;;;5040523;28;20006;-79
2023/01/26 13:41:56;;;;;;;19.52;8.63;;;;;;;;;;5040927;28;20044;-80
2023/01/26 13:44:32;;;;;;;15.68;6.68;;;;;;;;;;5040731;28;20045;-79
2023/01/26 13:47:04;;;;;;;18.95;7.68;;;;;;;;;;5029185;28;20032;-80
2023/01/26 13:49:40;;;;;;;15.82;7.05;;;;;;;;;;5022941;28;20025;-80
2023/01/26 13:52:18;;;;;;;19.23;7.25;;;;;;;;;;5021785;28;20033;-80
2023/01/26 13:54:45;;;;;;;15.27;7.00;;;;;;;;;;5021892;28;20022;-81
2023/01/26 13:57:11;;;;;;;16.55;7.60;;;;;;;;;;5021221;28;20026;-81
2023/01/26 14:00:00;;;;;;;17.90;7.50;;;;;;;;;;5023116;28;20033;-80
2023/01/26 14:02:31;;;;;;;21.92;7.60;;;;;;;;;;5020640;28;20470;-80
2023/01/26 14:04:57;;;;;;;16.50;7.30;;;;;;;;;;5020131;28;20030;-79
2023/01/26 14:07:38;;;;;;;16.55;7.68;;;;;;;;;;5019693;28;20065;-80
2023/01/26 14:10:07;;;;;;;15.18;7.15;;;;;;;;;;5019912;28;20037;-80
2023/01/26 14:12:35;;;;;;;17.80;7.53;;;;;;;;;;5020262;28;20036;-80
2023/01/26 14:15:03;;;;;;;19.50;7.93;;;;;;;;;;5020122;28;20022;-81
2023/01/26 14:17:35;;;;;;;13.25;5.93;;;;;;;;;;5017617;28;20022;-80
2023/01/26 14:20:02;;;;;;;19.10;7.38;;;;;;;;;;5021155;28;20026;-80
2023/01/26 14:22:28;;;;;;;15.13;7.35;;;;;;;;;;5019424;28;20022;-81
2023/01/26 14:24:54;;;;;;;15.93;7.18;;;;;;;;;;5019053;28;20022;-81
2023/01/26 14:27:34;;;;;;;17.33;8.10;;;;;;;;;;5020875;28;20018;-80
2023/01/26 14:29:59;;;;;;;18.10;8.13;;;;;;;;;;5023214;28;20084;-80
2023/01/26 14:32:28;;;;;;;15.30;7.60;;;;;;;;;;5019835;28;20033;-78
2023/01/26 14:34:58;;;;;;;19.30;7.85;;;;;;;;;;5019054;28;20026;-78
2023/01/26 14:37:25;;;;;;;14.90;7.63;;;;;;;;;;5017813;28;20057;-78
2023/01/26 14:40:16;;;;;;;16.15;7.20;;;;;;;;;;5018928;28;20350;-78
2023/01/26 14:42:42;;;;;;;13.50;6.95;;;;;;;;;;5018351;28;20393;-78
2023/01/26 14:45:12;;;;;;;10.48;5.40;;;;;;;;;;5018879;28;20022;-78
2023/01/26 14:47:41;;;;;;;19.00;7.72;;;;;;;;;;5018747;28;20030;-78
2023/01/26 14:50:26;;;;;;;13.85;6.78;;;;;;;;;;5020312;28;20053;-77
2023/01/26 14:52:52;;;;;;;13.70;5.90;;;;;;;;;;5020294;28;20110;-78
2023/01/26 14:55:23;;;;;;;12.00;6.32;;;;;;;;;;5019614;28;20050;-77
2023/01/26 14:57:50;;;;;;;13.70;7.15;;;;;;;;;;5018366;28;20484;-77
2023/01/26 15:00:24;;;;;;;14.80;7.18;;;;;;;;;;5017806;28;20053;-76
2023/01/26 15:02:51;;;;;;;;;;;;;;;;;;5016571;28;20026;-76
2023/01/26 15:05:19;;;;;;;13.88;6.22;;;;;;;;;;5015909;28;19916;-77
2023/01/26 15:08:00;;;;;;;14.43;5.97;;;;;;;;;;5014337;28;20099;-78
2023/01/26 15:10:39;;;;;;;17.48;7.60;;;;;;;;;;5015510;28;20392;-76
2023/01/26 15:13:09;;;;;;;12.73;6.05;;;;;;;;;;5015042;28;20515;-77
2023/01/26 15:15:47;;;;;;;14.18;6.53;;;;;;;;;;5014579;28;20396;-79
2023/01/26 15:18:12;;;;;;;14.10;6.68;;;;;;;;;;5015314;28;20100;-76
2023/01/26 15:20:59;;;;;;;11.53;6.47;;;;;;;;;;5015182;28;20056;-76
2023/01/26 15:23:33;;;;;;;12.07;6.07;;;;;;;;;;5015384;28;20730;-76
2023/01/26 15:26:12;;;;;;;14.98;6.70;;;;;;;;;;5015018;28;20034;-73
2023/01/26 15:28:38;;;;;;;14.75;6.72;;;;;;;;;;5014481;28;20022;-75